createdAt,value
2018-02-09T00:01:21.259Z,100236.48
2018-02-09T00:03:47.579Z,100235.52
2018-02-09T00:06:13.847Z,100233.37
2018-02-09T00:08:40.111Z,100231.84
2018-02-09T00:11:06.397Z,100237.01
2018-02-09T00:13:32.673Z,100243.40
2018-02-09T00:15:58.949Z,100239.72
2018-02-09T00:18:25.231Z,100233.77
2018-02-09T00:20:51.511Z,100235.11
2018-02-09T00:23:17.835Z,100232.50
2018-02-09T00:25:44.192Z,100232.77
2018-02-09T00:28:10.557Z,100240.17
2018-02-09T00:30:36.843Z,100234.80
2018-02-09T00:33:03.160Z,100236.76
2018-02-09T00:35:29.505Z,100230.47
2018-02-09T00:37:56.752Z,100230.84
2018-02-09T00:40:23.062Z,100227.56
2018-02-09T00:42:49.324Z,100226.52
2018-02-09T00:45:15.641Z,100232.12
2018-02-09T00:47:41.976Z,100231.75
2018-02-09T00:50:08.262Z,100234.64
2018-02-09T00:52:34.526Z,100231.98
2018-02-09T00:55:00.885Z,100232.19
2018-02-09T00:57:27.174Z,100231.59
2018-02-09T00:59:53.456Z,100229.67
2018-02-09T01:02:20.480Z,100231.37
2018-02-09T01:04:46.810Z,100226.02
2018-02-09T01:07:20.044Z,100225.58
2018-02-09T01:09:46.315Z,100230.70
2018-02-09T01:12:12.618Z,100228.02
2018-02-09T01:14:38.914Z,100229.12
2018-02-09T01:17:05.215Z,100223.52
2018-02-09T01:19:31.508Z,100223.14
2018-02-09T01:21:57.794Z,100222.03
2018-02-09T01:24:24.074Z,100226.11
2018-02-09T01:26:50.370Z,100217.61
2018-02-09T01:29:16.652Z,100225.98
2018-02-09T01:31:43.026Z,100216.58
2018-02-09T01:34:10.072Z,100215.94
2018-02-09T01:36:36.409Z,100213.44
2018-02-09T01:39:03.443Z,100216.17
2018-02-09T01:41:29.748Z,100217.83
2018-02-09T01:43:56.006Z,100217.55
2018-02-09T01:46:22.315Z,100213.81
2018-02-09T01:48:48.591Z,100214.40
2018-02-09T01:51:15.602Z,100219.37
2018-02-09T01:53:41.893Z,100217.23
2018-02-09T01:56:08.147Z,100209.70
2018-02-09T01:58:34.569Z,100208.26
2018-02-09T02:01:00.828Z,100205.58
2018-02-09T02:03:27.117Z,100202.91
2018-02-09T02:05:53.517Z,100196.31
2018-02-09T02:08:20.535Z,100197.91
2018-02-09T02:10:46.876Z,100196.98
2018-02-09T02:13:13.172Z,100194.72
2018-02-09T02:15:39.438Z,100187.86
2018-02-09T02:18:05.728Z,100189.86
2018-02-09T02:20:32.026Z,100186.33
2018-02-09T02:22:58.306Z,100190.84
2018-02-09T02:25:24.605Z,100183.61
2018-02-09T02:27:50.908Z,100185.56
2018-02-09T02:30:17.984Z,100171.80
2018-02-09T02:32:44.256Z,100172.53
2018-02-09T02:35:10.575Z,100168.52
2018-02-09T02:37:36.856Z,100175.11
2018-02-09T02:40:03.160Z,100177.97
2018-02-09T02:42:29.435Z,100166.17
2018-02-09T02:44:55.691Z,100165.81
2018-02-09T02:47:22.093Z,100152.98
2018-02-09T02:49:48.364Z,100161.12
2018-02-09T02:52:14.644Z,100153.88
2018-02-09T02:54:40.915Z,100160.08
2018-02-09T02:57:07.234Z,100146.04
2018-02-09T02:59:33.543Z,100150.34
2018-02-09T03:01:59.841Z,100142.14
2018-02-09T03:04:26.105Z,100139.32
2018-02-09T03:06:52.389Z,100142.41
2018-02-09T03:09:18.643Z,100138.42
2018-02-09T03:11:45.709Z,100144.48
2018-02-09T03:14:12.002Z,100141.02
2018-02-09T03:16:38.315Z,100139.04
2018-02-09T03:19:04.600Z,100137.97
2018-02-09T03:21:30.892Z,100133.25
2018-02-09T03:23:57.177Z,100127.99
2018-02-09T03:26:23.462Z,100127.42
2018-02-09T03:28:49.726Z,100123.72
2018-02-09T03:31:16.005Z,100120.94
2018-02-09T03:33:42.269Z,100124.70
2018-02-09T03:36:08.565Z,100120.80
2018-02-09T03:38:34.830Z,100112.16
2018-02-09T03:41:01.100Z,100111.41
2018-02-09T03:43:27.401Z,100107.05
2018-02-09T03:45:53.730Z,100104.66
2018-02-09T03:48:20.034Z,100106.19
2018-02-09T03:50:47.059Z,100106.78
2018-02-09T03:53:13.339Z,100107.09
2018-02-09T03:58:12.668Z,100106.61
2018-02-09T04:00:38.926Z,100096.48
2018-02-09T04:03:05.265Z,100107.80
2018-02-09T04:05:31.532Z,100099.88
2018-02-09T04:07:58.538Z,100090.16
2018-02-09T04:10:24.866Z,100095.91
2018-02-09T04:12:51.118Z,100100.87
2018-02-09T04:15:17.376Z,100096.78
2018-02-09T04:17:43.654Z,100094.70
2018-02-09T04:20:09.900Z,100094.91
2018-02-09T04:22:36.177Z,100092.84
2018-02-09T04:25:02.472Z,100088.97
2018-02-09T04:27:28.735Z,100092.86
2018-02-09T04:29:55.051Z,100090.14
2018-02-09T04:32:21.357Z,100084.83
2018-02-09T04:34:47.729Z,100086.38
2018-02-09T04:37:14.003Z,100077.95
2018-02-09T04:39:40.359Z,100079.00
2018-02-09T04:42:06.801Z,100078.96
2018-02-09T04:44:33.937Z,100077.91
2018-02-09T04:47:00.265Z,100071.35
2018-02-09T04:49:26.567Z,100069.03
2018-02-09T04:51:52.895Z,100076.16
2018-02-09T04:54:19.161Z,100067.03
2018-02-09T04:56:45.537Z,100062.81
2018-02-09T04:59:11.812Z,100064.38
2018-02-09T05:01:38.120Z,100059.73
2018-02-09T05:04:04.408Z,100067.56
2018-02-09T05:06:31.388Z,100068.67
2018-02-09T05:08:57.654Z,100069.98
2018-02-09T05:11:23.932Z,100073.34
2018-02-09T05:13:50.263Z,100073.57
2018-02-09T05:16:16.530Z,100066.72
2018-02-09T05:18:43.126Z,100067.55
2018-02-09T05:21:09.392Z,100073.39
2018-02-09T05:23:35.694Z,100075.83
2018-02-09T05:26:01.974Z,100076.31
2018-02-09T05:28:28.252Z,100074.22
2018-02-09T05:30:54.491Z,100076.90
2018-02-09T05:33:20.803Z,100079.34
2018-02-09T05:35:47.054Z,100077.67
2018-02-09T05:38:13.361Z,100075.25
2018-02-09T05:40:39.758Z,100077.95
2018-02-09T05:43:06.026Z,100079.98
2018-02-09T05:45:32.287Z,100076.17
2018-02-09T05:47:58.646Z,100081.39
2018-02-09T05:50:24.947Z,100069.92
2018-02-09T05:52:51.239Z,100069.22
2018-02-09T05:55:17.535Z,100071.33
2018-02-09T05:57:43.818Z,100069.30
2018-02-09T06:00:10.143Z,100066.77
2018-02-09T06:02:36.443Z,100067.61
2018-02-09T06:05:03.446Z,100063.03
2018-02-09T06:07:29.797Z,100061.89
2018-02-09T06:09:56.160Z,100056.27
2018-02-09T06:12:23.206Z,100052.73
2018-02-09T06:14:50.214Z,100052.12
2018-02-09T06:17:16.520Z,100057.09
2018-02-09T06:19:42.800Z,100047.92
2018-02-09T06:22:09.074Z,100047.32
2018-02-09T06:24:35.490Z,100053.94
2018-02-09T06:27:01.848Z,100051.50
2018-02-09T06:29:28.227Z,100053.33
2018-02-09T06:31:55.280Z,100059.73
2018-02-09T06:34:22.305Z,100062.02
2018-02-09T06:36:48.573Z,100061.08
2018-02-09T06:39:15.574Z,100065.66
2018-02-09T06:41:41.855Z,100060.91
2018-02-09T06:44:08.939Z,100062.41
2018-02-09T06:46:35.212Z,100063.01
2018-02-09T06:49:02.383Z,100063.45
2018-02-09T06:51:28.909Z,100062.97
2018-02-09T06:53:55.923Z,100057.43
2018-02-09T06:56:22.492Z,100057.09
2018-02-09T06:58:48.782Z,100061.70
2018-02-09T07:01:15.021Z,100066.06
2018-02-09T07:03:41.338Z,100061.53
2018-02-09T07:06:07.664Z,100066.57
2018-02-09T07:08:34.020Z,100067.61
2018-02-09T07:11:01.098Z,100070.91
2018-02-09T07:13:28.176Z,100065.27
2018-02-09T07:15:54.422Z,100067.75
2018-02-09T07:18:20.700Z,100063.75
2018-02-09T07:20:47.764Z,100068.61
2018-02-09T07:23:13.995Z,100066.75
2018-02-09T07:25:40.265Z,100071.72
2018-02-09T07:28:06.516Z,100066.67
2018-02-09T07:30:32.823Z,100067.86
2018-02-09T07:32:59.077Z,100061.31
2018-02-09T07:35:25.331Z,100062.67
2018-02-09T07:37:52.382Z,100065.69
2018-02-09T07:40:19.375Z,100065.25
2018-02-09T07:42:45.655Z,100055.94
2018-02-09T07:45:11.958Z,100065.86
2018-02-09T07:47:38.187Z,100061.95
2018-02-09T07:50:04.537Z,100056.96
2018-02-09T07:52:31.533Z,100058.99
2018-02-09T07:54:57.812Z,100056.33
2018-02-09T07:57:24.824Z,100046.70
2018-02-09T07:59:51.112Z,100050.41
2018-02-09T08:02:17.363Z,100050.94
2018-02-09T08:04:43.729Z,100045.50
2018-02-09T08:07:10.024Z,100044.36
2018-02-09T08:09:36.290Z,100043.80
2018-02-09T08:12:02.608Z,100048.70
2018-02-09T08:14:28.864Z,100046.21
2018-02-09T08:16:55.154Z,100048.17
2018-02-09T08:19:21.472Z,100040.07
2018-02-09T08:21:47.780Z,100046.67
2018-02-09T08:24:14.904Z,100037.09
2018-02-09T08:26:41.189Z,100040.87
2018-02-09T08:29:07.527Z,100036.77
2018-02-09T08:31:33.775Z,100050.48
2018-02-09T08:34:00.049Z,100025.36
2018-02-09T08:36:27.062Z,100032.93
2018-02-09T08:38:53.314Z,100037.31
2018-02-09T08:41:20.343Z,100035.20
2018-02-09T08:43:46.611Z,100028.90
2018-02-09T08:46:12.924Z,100024.76
2018-02-09T08:48:39.217Z,100029.63
2018-02-09T08:51:05.520Z,100032.77
2018-02-09T08:53:31.788Z,100024.28
2018-02-09T08:55:58.026Z,100029.96
2018-02-09T08:58:24.306Z,100022.78
2018-02-09T09:00:50.584Z,100020.29
2018-02-09T09:03:16.864Z,100027.92
2018-02-09T09:05:43.117Z,100026.87
2018-02-09T09:08:09.364Z,100020.48
2018-02-09T09:10:35.672Z,100022.83
2018-02-09T09:13:01.927Z,100020.92
2018-02-09T09:15:28.214Z,100016.16
2018-02-09T09:17:54.456Z,100019.25
2018-02-09T09:20:20.708Z,100017.58
2018-02-09T09:22:46.980Z,100013.00
2018-02-09T09:25:13.986Z,100011.06
2018-02-09T09:27:40.326Z,100012.22
2018-02-09T09:30:06.643Z,99995.83
2018-02-09T09:32:32.896Z,99998.89
2018-02-09T09:34:59.907Z,99992.28
2018-02-09T09:37:26.151Z,99992.48
2018-02-09T09:39:52.481Z,99991.86
2018-02-09T09:42:18.779Z,99991.67
2018-02-09T09:44:45.070Z,99986.24
2018-02-09T09:47:12.110Z,99990.27
2018-02-09T09:49:38.399Z,99991.58
2018-02-09T09:52:04.638Z,99991.56
2018-02-09T09:54:30.870Z,99984.86
2018-02-09T09:56:57.178Z,99986.80
2018-02-09T09:59:23.395Z,99986.84
2018-02-09T10:01:49.642Z,99989.09
2018-02-09T10:04:15.938Z,99987.04
2018-02-09T10:06:42.972Z,99989.14
2018-02-09T10:09:09.272Z,99975.05
2018-02-09T10:11:35.580Z,99979.49
2018-02-09T10:14:01.877Z,99969.97
2018-02-09T10:16:28.980Z,99973.62
2018-02-09T10:18:55.238Z,99969.84
2018-02-09T10:21:21.493Z,99967.08
2018-02-09T10:23:47.820Z,99963.19
2018-02-09T10:26:14.857Z,99958.34
2018-02-09T10:28:41.879Z,99956.80
2018-02-09T10:31:08.115Z,99955.30
2018-02-09T10:33:34.449Z,99950.50
2018-02-09T10:36:00.689Z,99946.53
2018-02-09T10:38:27.716Z,99938.34
2018-02-09T10:40:54.000Z,99937.48
2018-02-09T10:43:20.298Z,99939.09
2018-02-09T10:45:46.550Z,99935.84
2018-02-09T10:48:12.808Z,99928.30
2018-02-09T10:50:39.070Z,99928.99
2018-02-09T10:53:05.388Z,99931.28
2018-02-09T10:55:32.424Z,99931.22
2018-02-09T10:57:58.696Z,99930.12
2018-02-09T11:00:32.027Z,99929.75
2018-02-09T11:02:58.273Z,99923.71
2018-02-09T11:05:24.552Z,99923.19
2018-02-09T11:07:51.537Z,99918.38
2018-02-09T11:10:23.931Z,99921.27
2018-02-09T11:12:50.214Z,99917.20
2018-02-09T11:15:17.269Z,99913.38
2018-02-09T11:17:43.544Z,99914.19
2018-02-09T11:20:09.787Z,99914.61
2018-02-09T11:22:36.054Z,99905.53
2018-02-09T11:25:02.336Z,99915.88
2018-02-09T11:27:28.651Z,99907.75
2018-02-09T11:29:54.907Z,99905.27
2018-02-09T11:32:21.204Z,99894.21
2018-02-09T11:34:47.460Z,99906.25
2018-02-09T11:37:13.763Z,99910.48
2018-02-09T11:39:40.099Z,99905.73
2018-02-09T11:42:06.377Z,99913.75
2018-02-09T11:44:32.677Z,99904.15
2018-02-09T11:46:58.926Z,99897.89
2018-02-09T11:49:25.186Z,99901.30
2018-02-09T11:51:51.467Z,99902.95
2018-02-09T11:54:17.711Z,99894.46
2018-02-09T11:56:43.964Z,99902.03
2018-02-09T11:59:11.022Z,99898.98
2018-02-09T12:01:38.020Z,99898.42
2018-02-09T12:04:04.280Z,99893.16
2018-02-09T12:06:30.555Z,99896.69
2018-02-09T12:08:56.860Z,99894.83
2018-02-09T12:11:23.900Z,99891.16
2018-02-09T12:13:50.954Z,99883.33
2018-02-09T12:16:17.960Z,99879.32
2018-02-09T12:18:44.274Z,99884.25
2018-02-09T12:21:10.520Z,99880.16
2018-02-09T12:23:36.816Z,99882.22
2018-02-09T12:26:03.153Z,99883.72
2018-02-09T12:28:29.423Z,99873.63
2018-02-09T12:30:55.679Z,99868.73
2018-02-09T12:33:21.959Z,99865.67
2018-02-09T12:35:48.246Z,99860.38
2018-02-09T12:38:15.236Z,99864.03
2018-02-09T12:40:41.480Z,99861.70
2018-02-09T12:43:07.747Z,99863.55
2018-02-09T12:45:34.047Z,99857.52
2018-02-09T12:48:00.340Z,99851.97
2018-02-09T12:50:26.604Z,99853.90
2018-02-09T12:52:52.832Z,99852.62
2018-02-09T12:55:19.136Z,99859.61
2018-02-09T12:57:45.470Z,99860.73
2018-02-09T13:00:11.712Z,99852.06
2018-02-09T13:02:38.080Z,99844.02
2018-02-09T13:05:05.180Z,99843.70
2018-02-09T13:07:31.420Z,99838.51
2018-02-09T13:09:57.716Z,99838.58
2018-02-09T13:12:42.631Z,99835.36
2018-02-09T13:15:08.943Z,99832.73
2018-02-09T13:17:35.245Z,99835.80
2018-02-09T13:20:01.577Z,99834.44
2018-02-09T13:25:38.064Z,99827.41
2018-02-09T13:28:04.356Z,99825.02
2018-02-09T13:30:30.632Z,99827.77
2018-02-09T13:33:15.804Z,99817.33
2018-02-09T13:35:42.109Z,99817.95
2018-02-09T13:38:09.146Z,99801.73
2018-02-09T13:40:36.157Z,99814.89
2018-02-09T13:43:02.497Z,99814.84
2018-02-09T13:45:28.795Z,99809.19
2018-02-09T13:47:55.143Z,99807.48
2018-02-09T13:50:21.455Z,99812.59
2018-02-09T13:52:47.761Z,99808.64
2018-02-09T13:55:14.856Z,99805.42
2018-02-09T13:57:42.945Z,99799.78
2018-02-09T14:00:10.194Z,99801.42
2018-02-09T14:02:37.296Z,99797.16
2018-02-09T14:05:03.549Z,99806.69
2018-02-09T14:07:29.869Z,99804.45
2018-02-09T14:09:56.191Z,99802.97
2018-02-09T14:12:22.531Z,99796.71
2018-02-09T14:14:48.830Z,99792.23
2018-02-09T14:19:49.654Z,99784.25
2018-02-09T14:22:15.952Z,99781.40
2018-02-09T14:24:42.264Z,99779.39
2018-02-09T14:27:08.547Z,99771.19
2018-02-09T14:29:34.828Z,99768.14
2018-02-09T14:32:01.868Z,99760.49
2018-02-09T14:34:28.178Z,99759.23
2018-02-09T14:36:55.268Z,99753.23
2018-02-09T14:39:21.565Z,99747.17
2018-02-09T14:41:48.607Z,99754.55
2018-02-09T14:44:15.635Z,99759.48
2018-02-09T14:46:41.984Z,99752.08
2018-02-09T14:49:09.055Z,99754.27
2018-02-09T14:51:35.313Z,99754.74
2018-02-09T14:54:01.615Z,99749.24
2018-02-09T14:56:27.872Z,99748.86
2018-02-09T14:58:54.144Z,99750.80
2018-02-09T15:01:20.474Z,99752.82
2018-02-09T15:03:46.771Z,99749.20
2018-02-09T15:06:13.008Z,99750.06
2018-02-09T15:08:39.333Z,99751.55
2018-02-09T15:11:05.608Z,99741.48
2018-02-09T15:13:32.654Z,99755.83
2018-02-09T15:15:59.702Z,99752.38
2018-02-09T15:18:26.756Z,99754.36
2018-02-09T15:20:53.833Z,99757.98
2018-02-09T15:23:20.233Z,99751.84
2018-02-09T15:25:47.256Z,99762.00
2018-02-09T15:28:13.558Z,99762.59
2018-02-09T15:30:39.849Z,99762.64
2018-02-09T15:33:06.893Z,99763.02
2018-02-09T15:35:33.851Z,99770.11
2018-02-09T15:38:00.151Z,99766.97
2018-02-09T15:40:26.397Z,99767.55
2018-02-09T15:42:53.420Z,99768.15
2018-02-09T15:45:19.688Z,99767.52
2018-02-09T15:47:46.042Z,99772.13
2018-02-09T15:50:12.395Z,99770.28
2018-02-09T15:52:38.684Z,99771.42
2018-02-09T15:55:04.956Z,99771.47
2018-02-09T15:57:32.116Z,99767.58
2018-02-09T15:59:58.384Z,99767.33
2018-02-09T16:02:24.690Z,99769.80
2018-02-09T16:04:51.061Z,99768.86
2018-02-09T16:07:17.354Z,99772.32
2018-02-09T16:09:43.658Z,99773.43
2018-02-09T16:12:09.970Z,99773.59
2018-02-09T16:14:36.276Z,99781.72
2018-02-09T16:17:02.633Z,99777.34
2018-02-09T16:19:28.912Z,99777.45
2018-02-09T16:21:55.213Z,99775.88
2018-02-09T16:24:21.529Z,99783.95
2018-02-09T16:26:47.843Z,99784.34
2018-02-09T16:29:14.113Z,99776.46
2018-02-09T16:31:40.385Z,99781.48
2018-02-09T16:34:06.722Z,99785.50
2018-02-09T16:36:32.995Z,99781.23
2018-02-09T16:38:59.275Z,99786.27
2018-02-09T16:41:26.427Z,99781.87
2018-02-09T16:43:53.515Z,99785.81
2018-02-09T16:46:19.767Z,99784.16
2018-02-09T16:48:46.519Z,99778.69
2018-02-09T16:51:12.903Z,99786.45
2018-02-09T16:53:39.186Z,99784.45
2018-02-09T16:56:05.603Z,99791.94
2018-02-09T16:58:32.005Z,99789.18
2018-02-09T17:00:58.325Z,99790.22
2018-02-09T17:03:24.676Z,99786.59
2018-02-09T17:05:51.028Z,99792.48
2018-02-09T17:08:17.564Z,99796.22
2018-02-09T17:10:43.930Z,99790.86
2018-02-09T17:13:11.063Z,99787.91
2018-02-09T17:15:37.368Z,99792.45
2018-02-09T17:18:03.642Z,99791.25
2018-02-09T17:20:30.699Z,99796.19
2018-02-09T17:22:56.974Z,99794.05
2018-02-09T17:25:23.269Z,99796.53
2018-02-09T17:27:49.623Z,99793.32
2018-02-09T17:30:15.933Z,99797.28
2018-02-09T17:32:42.221Z,99793.86
2018-02-09T17:35:08.552Z,99798.61
2018-02-09T17:37:34.845Z,99803.95
2018-02-09T17:40:01.158Z,99806.67
2018-02-09T17:42:27.552Z,99808.25
2018-02-09T17:44:53.845Z,99787.63
2018-02-09T17:47:20.146Z,99801.30
2018-02-09T17:49:47.252Z,99804.72
2018-02-09T17:52:13.560Z,99791.47
2018-02-09T17:54:39.846Z,99794.03
2018-02-09T17:57:06.896Z,99795.92
2018-02-09T17:59:33.936Z,99792.58
2018-02-09T18:02:00.956Z,99796.73
2018-02-09T18:04:27.340Z,99803.80
2018-02-09T18:06:53.822Z,99804.95
2018-02-09T18:09:20.093Z,99803.87
2018-02-09T18:11:46.409Z,99804.66
2018-02-09T18:14:13.457Z,99802.80
2018-02-09T18:16:40.559Z,99795.42
2018-02-09T18:19:06.895Z,99798.23
2018-02-09T18:21:33.180Z,99802.72
2018-02-09T18:23:59.493Z,99803.91
2018-02-09T18:26:26.519Z,99805.54
2018-02-09T18:28:52.794Z,99802.27
2018-02-09T18:31:19.184Z,99805.05
2018-02-09T18:33:45.573Z,99806.00
2018-02-09T18:36:11.851Z,99808.48
2018-02-09T18:38:38.180Z,99806.10
2018-02-09T18:41:04.520Z,99808.06
2018-02-09T18:43:30.778Z,99803.70
2018-02-09T18:45:57.108Z,99810.67
2018-02-09T18:48:23.422Z,99815.77
2018-02-09T18:50:50.455Z,99813.41
2018-02-09T18:53:16.704Z,99815.53
2018-02-09T18:55:43.729Z,99815.08
2018-02-09T18:58:10.028Z,99811.79
2018-02-09T19:00:36.315Z,99816.40
2018-02-09T19:03:03.363Z,99816.25
2018-02-09T19:05:30.400Z,99814.52
2018-02-09T19:08:00.094Z,99815.05
2018-02-09T19:10:27.313Z,99820.55
2018-02-09T19:12:53.888Z,99821.19
2018-02-09T19:15:20.218Z,99816.66
2018-02-09T19:17:46.488Z,99816.16
2018-02-09T19:20:12.835Z,99817.97
2018-02-09T19:22:39.136Z,99819.63
2018-02-09T19:25:06.172Z,99823.97
2018-02-09T19:27:33.209Z,99824.96
2018-02-09T19:29:59.522Z,99824.84
2018-02-09T19:32:25.827Z,99817.79
2018-02-09T19:34:52.137Z,99838.56
2018-02-09T19:37:18.522Z,99833.05
2018-02-09T19:39:44.823Z,99842.06
2018-02-09T19:42:11.144Z,99838.78
2018-02-09T19:44:37.513Z,99844.97
2018-02-09T19:47:03.953Z,99846.08
2018-02-09T19:49:31.053Z,99844.61
2018-02-09T19:51:57.379Z,99848.42
2018-02-09T19:54:23.681Z,99855.16
2018-02-09T19:56:50.761Z,99851.92
2018-02-09T19:59:17.056Z,99857.53
2018-02-09T20:01:44.116Z,99852.86
2018-02-09T20:04:11.396Z,99852.94
2018-02-09T20:06:37.684Z,99847.57
2018-02-09T20:09:05.182Z,99850.70
2018-02-09T20:11:32.485Z,99850.39
2018-02-09T20:13:58.836Z,99849.63
2018-02-09T20:16:25.877Z,99855.27
2018-02-09T20:18:52.211Z,99853.58
2018-02-09T20:21:18.577Z,99849.28
2018-02-09T20:23:44.911Z,99859.41
2018-02-09T20:26:11.184Z,99861.59
2018-02-09T20:28:37.437Z,99863.55
2018-02-09T20:31:04.491Z,99861.37
2018-02-09T20:33:31.524Z,99858.78
2018-02-09T20:35:57.928Z,99864.16
2018-02-09T20:38:24.200Z,99856.77
2018-02-09T20:40:51.228Z,99852.88
2018-02-09T20:43:17.526Z,99857.64
2018-02-09T20:45:43.845Z,99854.09
2018-02-09T20:48:10.412Z,99853.27
2018-02-09T20:50:36.710Z,99855.28
2018-02-09T20:53:03.051Z,99846.25
2018-02-09T20:55:29.350Z,99852.19
2018-02-09T20:57:55.692Z,99849.89
2018-02-09T21:00:21.980Z,99848.50
2018-02-09T21:02:48.318Z,99849.63
2018-02-09T21:05:14.646Z,99833.02
2018-02-09T21:07:41.066Z,99842.02
2018-02-09T21:10:07.813Z,99839.66
2018-02-09T21:12:34.152Z,99842.63
2018-02-09T21:15:01.321Z,99848.08
2018-02-09T21:17:28.349Z,99843.59
2018-02-09T21:19:54.772Z,99847.77
2018-02-09T21:22:21.120Z,99846.92
2018-02-09T21:24:47.415Z,99847.80
2018-02-09T21:27:13.768Z,99851.39
2018-02-09T21:29:40.037Z,99847.45
2018-02-09T21:32:06.346Z,99842.52
2018-02-09T21:34:33.416Z,99847.19
2018-02-09T21:36:59.701Z,99848.41
2018-02-09T21:39:26.085Z,99845.69
2018-02-09T21:41:52.386Z,99843.70
2018-02-09T21:44:19.422Z,99847.41
2018-02-09T21:46:45.748Z,99851.13
2018-02-09T21:49:12.082Z,99849.70
2018-02-09T21:51:38.404Z,99854.90
2018-02-09T21:54:04.716Z,99851.17
2018-02-09T21:56:30.960Z,99849.45
2018-02-09T21:58:57.232Z,99855.51
2018-02-09T22:01:24.355Z,99848.27
2018-02-09T22:03:50.753Z,99853.06
2018-02-09T22:06:17.052Z,99859.14
2018-02-09T22:08:43.347Z,99852.57
2018-02-09T22:11:09.691Z,99857.45
2018-02-09T22:13:36.725Z,99856.83
2018-02-09T22:16:03.023Z,99861.98
2018-02-09T22:18:29.312Z,99851.86
2018-02-09T22:20:55.579Z,99856.92
2018-02-09T22:23:21.841Z,99857.56
2018-02-09T22:25:48.241Z,99853.80
2018-02-09T22:28:14.513Z,99854.47
2018-02-09T22:30:40.801Z,99849.78
2018-02-09T22:33:07.093Z,99852.44
2018-02-09T22:35:34.191Z,99849.73
2018-02-09T22:38:00.439Z,99844.63
2018-02-09T22:40:26.705Z,99859.03
2018-02-09T22:42:53.705Z,99854.66
2018-02-09T22:45:19.982Z,99853.55
2018-02-09T22:47:47.040Z,99852.61
2018-02-09T22:50:14.030Z,99856.02
2018-02-09T22:52:40.318Z,99867.37
2018-02-09T22:55:06.589Z,99859.06
2018-02-09T22:57:32.894Z,99855.33
2018-02-09T22:59:59.180Z,99862.86
2018-02-09T23:02:25.411Z,99862.45
2018-02-09T23:04:51.681Z,99866.16
2018-02-09T23:07:18.845Z,99861.41
2018-02-09T23:09:45.101Z,99865.94
2018-02-09T23:12:11.389Z,99866.34
2018-02-09T23:14:37.683Z,99869.72
2018-02-09T23:17:04.736Z,99870.64
2018-02-09T23:19:31.801Z,99866.73
2018-02-09T23:21:58.063Z,99863.73
2018-02-09T23:24:24.365Z,99874.02
2018-02-09T23:26:50.672Z,99873.13
2018-02-09T23:29:17.699Z,99869.95
2018-02-09T23:31:43.947Z,99870.07
2018-02-09T23:34:10.230Z,99875.08
2018-02-09T23:36:36.484Z,99878.78
2018-02-09T23:39:02.892Z,99872.27
2018-02-09T23:41:29.200Z,99866.94
2018-02-09T23:43:55.472Z,99871.16
2018-02-09T23:46:21.793Z,99874.19
2018-02-09T23:48:48.068Z,99866.47
2018-02-09T23:51:15.060Z,99870.56
2018-02-09T23:53:41.313Z,99869.04
2018-02-09T23:56:07.574Z,99870.10
2018-02-09T23:58:34.607Z,99870.02
